createdAt,value
2017-05-15T00:00:28.290Z,0
2017-05-15T00:01:36.381Z,0
2017-05-15T00:02:44.460Z,0
2017-05-15T00:03:52.548Z,0
2017-05-15T00:05:00.636Z,0
2017-05-15T00:06:08.723Z,0
2017-05-15T00:07:16.829Z,0
2017-05-15T00:08:24.893Z,0
2017-05-15T00:09:32.976Z,0
2017-05-15T00:10:41.064Z,0
2017-05-15T00:11:49.146Z,0
2017-05-15T00:12:57.237Z,0
2017-05-15T00:14:05.323Z,0
2017-05-15T00:15:13.411Z,0
2017-05-15T00:16:21.576Z,0
2017-05-15T00:17:29.582Z,0
2017-05-15T00:18:37.668Z,0
2017-05-15T00:19:45.753Z,0
2017-05-15T00:20:53.900Z,0
2017-05-15T00:22:01.926Z,0
2017-05-15T00:23:10.009Z,0
2017-05-15T00:24:18.097Z,0
2017-05-15T00:25:26.189Z,0
2017-05-15T00:26:34.270Z,0
2017-05-15T00:27:42.356Z,0
2017-05-15T00:28:50.441Z,0
2017-05-15T00:29:58.524Z,0
2017-05-15T00:31:06.609Z,0
2017-05-15T00:32:14.695Z,0
2017-05-15T00:33:22.810Z,0
2017-05-15T00:34:30.868Z,0
2017-05-15T00:35:38.955Z,0
2017-05-15T00:36:47.053Z,0
2017-05-15T00:37:55.126Z,0
2017-05-15T00:39:03.209Z,0
2017-05-15T00:40:11.295Z,0
2017-05-15T00:41:19.380Z,0
2017-05-15T00:42:27.465Z,0
2017-05-15T00:43:35.550Z,0
2017-05-15T00:44:43.637Z,0
2017-05-15T00:45:51.722Z,0
2017-05-15T00:46:59.815Z,0
2017-05-15T00:48:07.896Z,0
2017-05-15T00:49:15.980Z,0
2017-05-15T00:50:24.065Z,0
2017-05-15T00:51:32.156Z,0
2017-05-15T00:52:40.239Z,0
2017-05-15T00:53:48.322Z,0
2017-05-15T00:54:56.409Z,0
2017-05-15T00:56:04.497Z,0
2017-05-15T00:57:12.581Z,0
2017-05-15T00:58:20.672Z,0
2017-05-15T00:59:28.758Z,0
2017-05-15T01:00:36.841Z,0
2017-05-15T01:01:44.951Z,0
2017-05-15T01:02:53.039Z,0
2017-05-15T01:04:01.099Z,0
2017-05-15T01:05:09.189Z,0
2017-05-15T01:06:17.271Z,0
2017-05-15T01:07:25.388Z,0
2017-05-15T01:08:33.439Z,0
2017-05-15T01:09:41.531Z,0
2017-05-15T01:10:49.612Z,0
2017-05-15T01:11:57.702Z,0
2017-05-15T01:13:05.786Z,0
2017-05-15T01:14:13.873Z,0
2017-05-15T01:15:21.980Z,0
2017-05-15T01:16:30.042Z,0
2017-05-15T01:17:38.129Z,0
2017-05-15T01:18:46.269Z,0
2017-05-15T01:19:54.299Z,0
2017-05-15T01:21:02.381Z,0
2017-05-15T01:22:10.468Z,0
2017-05-15T01:23:18.557Z,0
2017-05-15T01:24:26.645Z,0
2017-05-15T01:25:34.725Z,0
2017-05-15T01:26:42.810Z,0
2017-05-15T01:27:50.899Z,0
2017-05-15T01:28:59.003Z,0
2017-05-15T01:30:07.067Z,0
2017-05-15T01:31:15.153Z,0
2017-05-15T01:32:23.246Z,0
2017-05-15T01:33:31.324Z,0
2017-05-15T01:34:39.412Z,0
2017-05-15T01:35:47.498Z,0
2017-05-15T01:36:55.579Z,0
2017-05-15T01:38:03.667Z,0
2017-05-15T01:39:11.748Z,0
2017-05-15T01:40:19.836Z,0
2017-05-15T01:41:27.922Z,0
2017-05-15T01:42:36.009Z,0
2017-05-15T01:43:44.092Z,0
2017-05-15T01:44:52.182Z,0
2017-05-15T01:46:00.271Z,0
2017-05-15T01:47:08.351Z,0
2017-05-15T01:48:16.436Z,0
2017-05-15T01:49:24.521Z,0
2017-05-15T01:50:32.609Z,0
2017-05-15T01:51:40.694Z,0
2017-05-15T01:52:48.801Z,0
2017-05-15T01:53:56.871Z,0
2017-05-15T01:55:04.947Z,0
2017-05-15T01:56:13.034Z,0
2017-05-15T01:57:21.121Z,0
2017-05-15T01:58:29.218Z,0
2017-05-15T01:59:37.287Z,0
2017-05-15T02:00:45.372Z,0
2017-05-15T02:01:53.463Z,0
2017-05-15T02:03:01.543Z,0
2017-05-15T02:04:09.632Z,0
2017-05-15T02:05:17.719Z,0
2017-05-15T02:06:25.807Z,0
2017-05-15T02:07:33.921Z,0
2017-05-15T02:08:41.993Z,0
2017-05-15T02:09:50.068Z,0
2017-05-15T02:10:58.167Z,0
2017-05-15T02:12:06.238Z,0
2017-05-15T02:13:14.329Z,0
2017-05-15T02:14:22.412Z,0
2017-05-15T02:15:30.549Z,0
2017-05-15T02:16:38.582Z,0
2017-05-15T02:17:46.668Z,0
2017-05-15T02:18:54.753Z,0
2017-05-15T02:20:02.839Z,0
2017-05-15T02:21:10.929Z,0
2017-05-15T02:22:19.014Z,0
2017-05-15T02:23:27.101Z,0
2017-05-15T02:24:35.180Z,0
2017-05-15T02:25:43.268Z,0
2017-05-15T02:26:51.361Z,0
2017-05-15T02:27:59.441Z,0
2017-05-15T02:29:07.522Z,0
2017-05-15T02:30:15.622Z,0
2017-05-15T02:31:23.704Z,0
2017-05-15T02:32:31.841Z,0
2017-05-15T02:33:39.870Z,0
2017-05-15T02:34:47.961Z,0
2017-05-15T02:35:56.046Z,0
2017-05-15T02:37:04.130Z,0
2017-05-15T02:38:12.220Z,0
2017-05-15T02:39:20.299Z,0
2017-05-15T02:40:28.388Z,0
2017-05-15T02:41:36.475Z,0
2017-05-15T02:42:44.562Z,0
2017-05-15T02:43:52.648Z,0
2017-05-15T02:45:00.730Z,0
2017-05-15T02:46:08.817Z,0
2017-05-15T02:47:16.902Z,0
2017-05-15T02:48:25.016Z,0
2017-05-15T02:49:33.164Z,0
2017-05-15T02:50:41.159Z,0
2017-05-15T02:51:49.244Z,0
2017-05-15T02:52:57.385Z,0
2017-05-15T02:54:05.413Z,0
2017-05-15T02:55:13.502Z,0
2017-05-15T02:56:21.584Z,0
2017-05-15T02:57:29.673Z,0
2017-05-15T02:58:38.265Z,0
2017-05-15T02:59:45.947Z,0
2017-05-15T03:00:53.927Z,0
2017-05-15T03:02:02.072Z,0
2017-05-15T03:03:10.097Z,0
2017-05-15T03:04:18.191Z,0
2017-05-15T03:05:26.272Z,0
2017-05-15T03:06:34.355Z,0
2017-05-15T03:07:42.439Z,0
2017-05-15T03:08:50.528Z,0
2017-05-15T03:09:58.612Z,0
2017-05-15T03:11:06.700Z,0
2017-05-15T03:12:14.780Z,0
2017-05-15T03:13:22.865Z,0
2017-05-15T03:14:30.950Z,0
2017-05-15T03:15:39.048Z,0
2017-05-15T03:16:47.122Z,0
2017-05-15T03:17:55.212Z,0
2017-05-15T03:19:03.297Z,0
2017-05-15T03:20:11.379Z,0
2017-05-15T03:21:19.464Z,0
2017-05-15T03:22:27.549Z,0
2017-05-15T03:23:35.636Z,0
2017-05-15T03:24:43.720Z,0
2017-05-15T03:25:51.805Z,0
2017-05-15T03:26:59.891Z,0
2017-05-15T03:28:08.001Z,0
2017-05-15T03:29:16.063Z,0
2017-05-15T03:30:24.150Z,0
2017-05-15T03:31:32.259Z,0
2017-05-15T03:32:40.321Z,0
2017-05-15T03:33:48.404Z,0
2017-05-15T03:34:56.489Z,0
2017-05-15T03:36:04.574Z,0
2017-05-15T03:37:12.712Z,0
2017-05-15T03:38:20.747Z,0
2017-05-15T03:39:28.842Z,0
2017-05-15T03:40:36.928Z,0
2017-05-15T03:41:45.004Z,0
2017-05-15T03:42:53.087Z,0
2017-05-15T03:44:01.173Z,0
2017-05-15T03:45:09.257Z,0
2017-05-15T03:46:17.344Z,0
2017-05-15T03:47:25.428Z,0
2017-05-15T03:48:33.514Z,0
2017-05-15T03:49:41.600Z,0
2017-05-15T03:50:49.685Z,0
2017-05-15T03:51:57.773Z,0
2017-05-15T03:53:05.855Z,0
2017-05-15T03:54:13.941Z,0
2017-05-15T03:55:22.026Z,0
2017-05-15T03:56:30.129Z,4
2017-05-15T03:57:38.202Z,4
2017-05-15T03:58:46.285Z,4
2017-05-15T03:59:54.369Z,0
2017-05-15T04:01:02.455Z,0
2017-05-15T04:02:10.540Z,4
2017-05-15T04:03:18.624Z,0
2017-05-15T04:04:26.710Z,0
2017-05-15T04:05:34.824Z,0
2017-05-15T04:06:42.908Z,0
2017-05-15T04:07:50.969Z,0
2017-05-15T04:08:59.052Z,0
2017-05-15T04:10:07.147Z,0
2017-05-15T04:11:15.226Z,0
2017-05-15T04:12:23.313Z,0
2017-05-15T04:13:31.398Z,0
2017-05-15T04:14:39.485Z,0
2017-05-15T04:15:47.567Z,0
2017-05-15T04:16:55.659Z,0
2017-05-15T04:18:03.741Z,0
2017-05-15T04:19:11.825Z,0
2017-05-15T04:20:19.912Z,0
2017-05-15T04:21:27.996Z,0
2017-05-15T04:22:36.080Z,4
2017-05-15T04:23:44.170Z,0
2017-05-15T04:24:52.253Z,0
2017-05-15T04:26:00.337Z,0
2017-05-15T04:27:08.423Z,0
2017-05-15T04:28:16.510Z,4
2017-05-15T04:29:24.614Z,4
2017-05-15T04:30:32.677Z,4
2017-05-15T04:31:41.138Z,4
2017-05-15T04:32:48.849Z,4
2017-05-15T04:33:56.931Z,4
2017-05-15T04:35:05.026Z,0
2017-05-15T04:36:13.108Z,0
2017-05-15T04:37:21.188Z,0
2017-05-15T04:38:29.279Z,0
2017-05-15T04:39:37.395Z,0
2017-05-15T04:40:45.448Z,0
2017-05-15T04:41:53.538Z,4
2017-05-15T04:43:01.624Z,4
2017-05-15T04:44:09.707Z,0
2017-05-15T04:45:17.792Z,0
2017-05-15T04:46:25.877Z,0
2017-05-15T04:47:34.558Z,0
2017-05-15T04:48:42.074Z,0
2017-05-15T04:49:50.134Z,0
2017-05-15T04:50:58.224Z,0
2017-05-15T04:52:06.307Z,0
2017-05-15T04:53:14.394Z,0
2017-05-15T04:54:22.479Z,4
2017-05-15T04:55:30.563Z,4
2017-05-15T04:56:38.656Z,4
2017-05-15T04:57:46.740Z,4
2017-05-15T04:58:54.823Z,4
2017-05-15T05:00:02.908Z,4
2017-05-15T05:01:11.088Z,0
2017-05-15T05:02:19.077Z,0
2017-05-15T05:03:27.168Z,4
2017-05-15T05:04:35.543Z,4
2017-05-15T05:05:43.335Z,4
2017-05-15T05:06:51.627Z,4
2017-05-15T05:07:59.508Z,4
2017-05-15T05:09:07.598Z,4
2017-05-15T05:10:15.702Z,8
2017-05-15T05:11:23.760Z,8
2017-05-15T05:12:32.220Z,4
2017-05-15T05:13:39.971Z,4
2017-05-15T05:14:48.068Z,8
2017-05-15T05:15:56.105Z,8
2017-05-15T05:17:04.214Z,8
2017-05-15T05:18:12.568Z,12
2017-05-15T05:19:20.718Z,8
2017-05-15T05:20:28.451Z,8
2017-05-15T05:21:36.531Z,8
2017-05-15T05:22:44.618Z,12
2017-05-15T05:23:52.703Z,8
2017-05-15T05:25:00.953Z,8
2017-05-15T05:26:08.994Z,8
2017-05-15T05:27:16.980Z,12
2017-05-15T05:28:25.044Z,8
2017-05-15T05:29:33.132Z,8
2017-05-15T05:30:41.226Z,8
2017-05-15T05:31:49.300Z,8
2017-05-15T05:32:57.390Z,8
2017-05-15T05:34:05.475Z,8
2017-05-15T05:35:13.558Z,8
2017-05-15T05:36:21.639Z,12
2017-05-15T05:37:29.724Z,8
2017-05-15T05:38:37.810Z,8
2017-05-15T05:39:46.164Z,8
2017-05-15T05:40:53.987Z,8
2017-05-15T05:42:02.069Z,8
2017-05-15T05:43:10.152Z,8
2017-05-15T05:44:18.807Z,8
2017-05-15T05:45:26.331Z,8
2017-05-15T05:46:34.406Z,8
2017-05-15T05:47:42.492Z,8
2017-05-15T05:48:50.576Z,8
2017-05-15T05:49:58.666Z,8
2017-05-15T05:51:06.746Z,8
2017-05-15T05:52:14.831Z,12
2017-05-15T05:53:22.948Z,8
2017-05-15T05:54:31.002Z,8
2017-05-15T05:55:39.099Z,8
2017-05-15T05:56:47.172Z,12
2017-05-15T05:57:55.258Z,8
2017-05-15T05:59:03.346Z,12
2017-05-15T06:00:11.430Z,12
2017-05-15T06:01:19.516Z,12
2017-05-15T06:02:27.598Z,12
2017-05-15T06:03:35.683Z,12
2017-05-15T06:04:43.770Z,12
2017-05-15T06:05:51.857Z,12
2017-05-15T06:07:00.438Z,12
2017-05-15T06:08:08.022Z,16
2017-05-15T06:09:16.113Z,16
2017-05-15T06:10:24.321Z,16
2017-05-15T06:11:32.296Z,16
2017-05-15T06:12:40.730Z,16
2017-05-15T06:13:48.881Z,16
2017-05-15T06:14:56.621Z,16
2017-05-15T06:16:04.620Z,12
2017-05-15T06:17:13.407Z,16
2017-05-15T06:18:20.961Z,16
2017-05-15T06:19:28.872Z,16
2017-05-15T06:20:37.097Z,16
2017-05-15T06:21:45.290Z,16
2017-05-15T06:22:53.309Z,16
2017-05-15T06:24:01.500Z,16
2017-05-15T06:25:09.977Z,16
2017-05-15T06:26:17.457Z,12
2017-05-15T06:27:25.566Z,12
2017-05-15T06:28:33.686Z,12
2017-05-15T06:29:42.310Z,12
2017-05-15T06:30:49.720Z,8
2017-05-15T06:31:57.877Z,12
2017-05-15T06:33:05.903Z,8
2017-05-15T06:34:14.003Z,12
2017-05-15T06:35:22.283Z,16
2017-05-15T06:36:30.341Z,20
2017-05-15T06:37:38.230Z,12
2017-05-15T06:38:46.315Z,28
2017-05-15T06:39:54.454Z,28
2017-05-15T06:41:02.484Z,28
2017-05-15T06:42:10.573Z,28
2017-05-15T06:43:18.657Z,28
2017-05-15T06:44:26.742Z,28
2017-05-15T06:45:34.827Z,28
2017-05-15T06:46:42.911Z,28
2017-05-15T06:47:50.997Z,32
2017-05-15T06:48:59.080Z,32
2017-05-15T06:50:07.621Z,32
2017-05-15T06:51:15.272Z,32
2017-05-15T06:52:23.993Z,36
2017-05-15T06:53:31.421Z,36
2017-05-15T06:54:39.509Z,40
2017-05-15T06:55:47.593Z,36
2017-05-15T06:56:55.677Z,36
2017-05-15T06:58:03.758Z,32
2017-05-15T06:59:11.846Z,32
2017-05-15T07:00:19.930Z,36
2017-05-15T07:01:28.137Z,36
2017-05-15T07:02:36.098Z,36
2017-05-15T07:03:44.189Z,36
2017-05-15T07:04:52.278Z,36
2017-05-15T07:06:00.366Z,36
2017-05-15T07:07:08.445Z,36
2017-05-15T07:08:16.532Z,36
2017-05-15T07:09:24.616Z,36
2017-05-15T07:10:32.699Z,40
2017-05-15T07:11:40.788Z,36
2017-05-15T07:12:48.870Z,28
2017-05-15T07:13:56.958Z,36
2017-05-15T07:15:05.039Z,32
2017-05-15T07:16:13.150Z,44
2017-05-15T07:17:21.210Z,60
2017-05-15T07:18:29.297Z,40
2017-05-15T07:19:37.381Z,36
2017-05-15T07:20:45.473Z,24
2017-05-15T07:21:53.553Z,28
2017-05-15T07:23:01.642Z,36
2017-05-15T07:24:09.737Z,40
2017-05-15T07:25:17.819Z,20
2017-05-15T07:26:25.901Z,24
2017-05-15T07:27:33.996Z,20
2017-05-15T07:28:42.072Z,28
2017-05-15T07:29:50.157Z,32
2017-05-15T07:30:58.268Z,44
2017-05-15T07:32:06.329Z,32
2017-05-15T07:33:14.414Z,48
2017-05-15T07:34:22.496Z,36
2017-05-15T07:35:30.585Z,60
2017-05-15T07:36:38.667Z,44
2017-05-15T07:37:47.288Z,52
2017-05-15T07:38:54.848Z,52
2017-05-15T07:40:02.929Z,56
2017-05-15T07:41:11.021Z,48
2017-05-15T07:42:19.134Z,56
2017-05-15T07:43:27.204Z,56
2017-05-15T07:44:35.283Z,56
2017-05-15T07:45:43.370Z,56
2017-05-15T07:46:51.457Z,56
2017-05-15T07:47:59.537Z,56
2017-05-15T07:49:07.625Z,52
2017-05-15T07:50:15.707Z,52
2017-05-15T07:51:23.795Z,52
2017-05-15T07:52:31.878Z,52
2017-05-15T07:53:39.961Z,52
2017-05-15T07:54:48.050Z,56
2017-05-15T07:55:56.135Z,52
2017-05-15T07:57:04.225Z,52
2017-05-15T07:58:12.340Z,48
2017-05-15T07:59:20.395Z,44
2017-05-15T08:00:28.483Z,52
2017-05-15T08:01:36.839Z,52
2017-05-15T08:02:44.653Z,52
2017-05-15T08:03:52.741Z,56
2017-05-15T08:05:01.020Z,56
2017-05-15T08:06:08.911Z,60
2017-05-15T08:07:16.997Z,60
2017-05-15T08:08:25.087Z,60
2017-05-15T08:09:33.194Z,64
2017-05-15T08:10:41.254Z,60
2017-05-15T08:11:49.339Z,60
2017-05-15T08:12:57.444Z,24
2017-05-15T08:14:05.513Z,24
2017-05-15T08:15:13.599Z,60
2017-05-15T08:16:21.685Z,56
2017-05-15T08:17:29.771Z,20
2017-05-15T08:18:37.853Z,20
2017-05-15T08:19:45.941Z,36
2017-05-15T08:20:54.052Z,48
2017-05-15T08:22:02.156Z,48
2017-05-15T08:23:10.201Z,52
2017-05-15T08:24:18.290Z,48
2017-05-15T08:25:26.701Z,48
2017-05-15T08:26:34.457Z,52
2017-05-15T08:27:42.544Z,48
2017-05-15T08:28:50.628Z,52
2017-05-15T08:29:58.737Z,36
2017-05-15T08:31:06.802Z,52
2017-05-15T08:32:14.894Z,52
2017-05-15T08:33:22.978Z,52
2017-05-15T08:34:31.069Z,52
2017-05-15T08:35:39.163Z,52
2017-05-15T08:36:47.236Z,44
2017-05-15T08:37:55.327Z,52
2017-05-15T08:39:03.505Z,40
2017-05-15T08:40:11.500Z,36
2017-05-15T08:41:19.585Z,32
2017-05-15T08:42:27.675Z,36
2017-05-15T08:43:35.764Z,32
2017-05-15T08:44:43.849Z,48
2017-05-15T08:45:51.930Z,48
2017-05-15T08:47:00.143Z,48
2017-05-15T08:48:08.101Z,44
2017-05-15T08:49:16.189Z,48
2017-05-15T08:50:24.273Z,44
2017-05-15T08:51:32.362Z,44
2017-05-15T08:52:40.446Z,48
2017-05-15T08:53:48.533Z,44
2017-05-15T08:54:56.618Z,44
2017-05-15T08:56:04.794Z,48
2017-05-15T08:57:12.803Z,48
2017-05-15T08:58:20.916Z,48
2017-05-15T08:59:28.961Z,48
2017-05-15T09:00:37.046Z,48
2017-05-15T09:01:45.254Z,44
2017-05-15T09:02:53.225Z,24
2017-05-15T09:04:01.579Z,48
2017-05-15T09:05:09.389Z,44
2017-05-15T09:06:17.476Z,48
2017-05-15T09:07:25.562Z,52
2017-05-15T09:08:33.647Z,28
2017-05-15T09:09:41.734Z,24
2017-05-15T09:10:49.823Z,44
2017-05-15T09:11:58.034Z,48
2017-05-15T09:13:06.056Z,44
2017-05-15T09:14:14.083Z,44
2017-05-15T09:15:22.170Z,44
2017-05-15T09:16:30.256Z,44
2017-05-15T09:17:38.341Z,44
2017-05-15T09:18:46.427Z,44
2017-05-15T09:19:54.514Z,44
2017-05-15T09:21:02.600Z,44
2017-05-15T09:22:10.687Z,44
2017-05-15T09:23:18.774Z,44
2017-05-15T09:24:26.858Z,44
2017-05-15T09:25:35.069Z,44
2017-05-15T09:26:43.078Z,44
2017-05-15T09:27:51.117Z,44
2017-05-15T09:28:59.203Z,44
2017-05-15T09:30:07.292Z,44
2017-05-15T09:31:15.384Z,48
2017-05-15T09:32:23.465Z,48
2017-05-15T09:33:31.623Z,48
2017-05-15T09:34:39.704Z,44
2017-05-15T09:35:47.716Z,44
2017-05-15T09:36:55.803Z,44
2017-05-15T09:38:03.889Z,48
2017-05-15T09:39:11.976Z,48
2017-05-15T09:40:20.060Z,44
2017-05-15T09:41:28.148Z,48
2017-05-15T09:42:36.240Z,52
2017-05-15T09:43:44.319Z,52
2017-05-15T09:44:52.422Z,48
2017-05-15T09:46:00.503Z,52
2017-05-15T09:47:08.576Z,52
2017-05-15T09:48:16.672Z,52
2017-05-15T09:49:25.064Z,48
2017-05-15T09:50:32.845Z,48
2017-05-15T09:51:40.927Z,48
2017-05-15T09:52:49.012Z,48
2017-05-15T09:53:57.101Z,52
2017-05-15T09:55:05.183Z,48
2017-05-15T09:56:13.277Z,48
2017-05-15T09:57:21.365Z,44
2017-05-15T09:58:29.443Z,48
2017-05-15T09:59:37.530Z,48
2017-05-15T10:00:45.617Z,48
2017-05-15T10:01:53.702Z,48
2017-05-15T10:03:01.789Z,48
2017-05-15T10:04:09.877Z,48
2017-05-15T10:05:17.959Z,48
2017-05-15T10:06:26.104Z,48
2017-05-15T10:07:34.132Z,52
2017-05-15T10:08:42.217Z,48
2017-05-15T10:09:50.305Z,48
2017-05-15T10:10:58.399Z,52
2017-05-15T10:12:06.477Z,52
2017-05-15T10:13:14.562Z,52
2017-05-15T10:14:22.681Z,52
2017-05-15T10:15:30.738Z,56
2017-05-15T10:16:38.824Z,52
2017-05-15T10:17:46.995Z,60
2017-05-15T10:18:55.003Z,60
2017-05-15T10:20:03.079Z,56
2017-05-15T10:21:11.177Z,56
2017-05-15T10:22:19.257Z,60
2017-05-15T10:23:27.346Z,60
2017-05-15T10:24:35.431Z,60
2017-05-15T10:25:43.525Z,60
2017-05-15T10:26:51.602Z,56
2017-05-15T10:27:59.698Z,56
2017-05-15T10:29:07.780Z,60
2017-05-15T10:30:15.869Z,60
2017-05-15T10:31:24.224Z,60
2017-05-15T10:32:32.049Z,60
2017-05-15T10:33:40.128Z,60
2017-05-15T10:34:48.372Z,64
2017-05-15T10:35:56.306Z,36
2017-05-15T10:37:04.385Z,72
2017-05-15T10:38:12.478Z,72
2017-05-15T10:39:20.566Z,36
2017-05-15T10:40:28.647Z,56
2017-05-15T10:41:36.734Z,68
2017-05-15T10:42:44.827Z,32
2017-05-15T10:43:52.912Z,32
2017-05-15T10:45:01.001Z,64
2017-05-15T10:46:09.090Z,44
2017-05-15T10:47:17.167Z,28
2017-05-15T10:48:25.258Z,44
2017-05-15T10:49:33.340Z,52
2017-05-15T10:50:41.427Z,56
2017-05-15T10:51:49.519Z,56
2017-05-15T10:52:57.604Z,36
2017-05-15T10:54:05.685Z,48
2017-05-15T10:55:13.773Z,24
2017-05-15T10:56:21.858Z,28
2017-05-15T10:57:29.949Z,28
2017-05-15T10:58:38.029Z,24
2017-05-15T11:00:54.198Z,20
2017-05-15T11:02:02.286Z,16
2017-05-15T11:03:10.372Z,48
2017-05-15T11:05:26.547Z,16
2017-05-15T11:06:34.633Z,48
2017-05-15T11:07:42.719Z,20
2017-05-15T11:08:50.805Z,16
2017-05-15T11:09:59.185Z,16
2017-05-15T11:11:06.976Z,16
2017-05-15T11:13:23.163Z,20
2017-05-15T11:14:31.238Z,32
2017-05-15T11:15:39.329Z,24
2017-05-15T11:16:47.410Z,24
2017-05-15T11:17:55.550Z,24
2017-05-15T11:19:03.582Z,20
2017-05-15T11:20:11.669Z,20
2017-05-15T11:21:19.756Z,20
2017-05-15T11:22:27.842Z,20
2017-05-15T11:23:35.964Z,24
2017-05-15T11:24:44.015Z,32
2017-05-15T11:25:52.102Z,24
2017-05-15T11:27:00.190Z,24
2017-05-15T11:28:08.280Z,24
2017-05-15T11:29:16.360Z,20
2017-05-15T11:30:24.449Z,20
2017-05-15T11:31:32.547Z,32
2017-05-15T11:32:40.622Z,20
2017-05-15T11:33:48.756Z,20
2017-05-15T11:34:56.800Z,20
2017-05-15T11:36:04.902Z,24
2017-05-15T11:37:12.967Z,24
2017-05-15T11:38:21.056Z,28
2017-05-15T11:39:29.153Z,32
2017-05-15T11:40:37.223Z,32
2017-05-15T11:41:45.315Z,24
2017-05-15T11:42:53.396Z,28
2017-05-15T11:44:01.484Z,24
2017-05-15T11:45:09.568Z,24
2017-05-15T11:46:17.654Z,24
2017-05-15T11:47:25.744Z,44
2017-05-15T11:48:33.833Z,24
2017-05-15T11:49:41.911Z,24
2017-05-15T11:50:50.085Z,28
2017-05-15T11:51:58.090Z,40
2017-05-15T11:53:06.171Z,28
2017-05-15T11:54:14.269Z,24
2017-05-15T11:55:22.345Z,28
2017-05-15T11:56:30.436Z,28
2017-05-15T11:57:38.515Z,28
2017-05-15T11:58:46.608Z,36
2017-05-15T11:59:54.695Z,40
2017-05-15T12:01:02.783Z,56
2017-05-15T12:02:10.871Z,52
2017-05-15T12:03:18.963Z,52
2017-05-15T12:04:27.043Z,28
2017-05-15T12:05:35.138Z,32
2017-05-15T12:06:43.212Z,36
2017-05-15T12:07:51.814Z,32
2017-05-15T12:08:59.387Z,32
2017-05-15T12:10:07.471Z,32
2017-05-15T12:11:15.559Z,32
2017-05-15T12:12:23.645Z,32
2017-05-15T12:13:31.732Z,40
2017-05-15T12:14:39.818Z,36
2017-05-15T12:15:47.910Z,48
2017-05-15T12:16:55.992Z,52
2017-05-15T12:18:04.084Z,52
2017-05-15T12:19:12.169Z,48
2017-05-15T12:20:20.255Z,36
2017-05-15T12:21:28.343Z,52
2017-05-15T12:22:36.432Z,52
2017-05-15T12:23:44.517Z,52
2017-05-15T12:24:52.605Z,52
2017-05-15T12:26:00.689Z,28
2017-05-15T12:27:08.775Z,32
2017-05-15T12:28:16.862Z,44
2017-05-15T12:29:24.973Z,44
2017-05-15T12:30:33.035Z,44
2017-05-15T12:31:41.120Z,40
2017-05-15T12:32:49.208Z,44
2017-05-15T12:33:57.302Z,36
2017-05-15T12:35:05.389Z,32
2017-05-15T12:36:13.468Z,28
2017-05-15T12:37:21.550Z,24
2017-05-15T12:38:29.636Z,24
2017-05-15T12:39:37.723Z,24
2017-05-15T12:40:45.812Z,40
2017-05-15T12:41:53.907Z,28
2017-05-15T12:43:01.985Z,40
2017-05-15T12:44:10.072Z,48
2017-05-15T12:45:18.159Z,44
2017-05-15T12:46:26.243Z,44
2017-05-15T12:47:34.332Z,44
2017-05-15T12:48:42.850Z,36
2017-05-15T12:49:50.505Z,44
2017-05-15T12:50:58.591Z,44
2017-05-15T12:52:06.677Z,48
2017-05-15T12:53:14.764Z,44
2017-05-15T12:54:22.851Z,44
2017-05-15T12:55:30.946Z,40
2017-05-15T12:56:39.022Z,40
2017-05-15T12:57:47.120Z,40
2017-05-15T12:58:55.198Z,36
2017-05-15T13:00:03.282Z,36
2017-05-15T13:01:11.371Z,36
2017-05-15T13:02:19.457Z,36
2017-05-15T13:03:27.543Z,36
2017-05-15T13:04:35.631Z,36
2017-05-15T13:05:43.716Z,36
2017-05-15T13:06:51.802Z,24
2017-05-15T13:07:59.890Z,32
2017-05-15T13:09:08.000Z,36
2017-05-15T13:10:16.087Z,36
2017-05-15T13:11:24.182Z,36
2017-05-15T13:12:32.236Z,36
2017-05-15T13:13:40.322Z,36
2017-05-15T13:14:48.409Z,36
2017-05-15T13:15:56.504Z,36
2017-05-15T13:17:04.589Z,36
2017-05-15T13:18:12.674Z,36
2017-05-15T13:19:20.763Z,40
2017-05-15T13:20:28.849Z,40
2017-05-15T13:21:36.937Z,36
2017-05-15T13:22:45.022Z,36
2017-05-15T13:23:53.110Z,40
2017-05-15T13:25:01.194Z,40
2017-05-15T13:26:09.281Z,32
2017-05-15T13:27:17.367Z,32
2017-05-15T13:28:25.454Z,32
2017-05-15T13:29:33.539Z,32
2017-05-15T13:30:41.794Z,28
2017-05-15T13:31:49.713Z,32
2017-05-15T13:32:57.852Z,28
2017-05-15T13:34:05.887Z,32
2017-05-15T13:35:13.979Z,32
2017-05-15T13:36:22.062Z,28
2017-05-15T13:37:30.147Z,28
2017-05-15T13:38:38.234Z,32
2017-05-15T13:39:46.340Z,32
2017-05-15T13:40:54.406Z,32
2017-05-15T13:42:02.494Z,32
2017-05-15T13:43:10.579Z,32
2017-05-15T13:44:18.665Z,32
2017-05-15T13:45:26.748Z,32
2017-05-15T13:46:34.838Z,32
2017-05-15T13:47:42.948Z,32
2017-05-15T13:48:51.010Z,32
2017-05-15T13:49:59.099Z,32
2017-05-15T13:51:07.183Z,32
2017-05-15T13:52:15.272Z,32
2017-05-15T13:53:23.361Z,32
2017-05-15T13:54:31.446Z,32
2017-05-15T13:55:39.530Z,32
2017-05-15T13:56:47.617Z,32
2017-05-15T13:57:55.704Z,36
2017-05-15T13:59:03.791Z,36
2017-05-15T14:00:11.898Z,32
2017-05-15T14:01:20.261Z,36
2017-05-15T14:02:28.061Z,32
2017-05-15T14:03:36.195Z,36
2017-05-15T14:04:44.223Z,36
2017-05-15T14:05:52.311Z,32
2017-05-15T14:07:00.396Z,32
2017-05-15T14:08:08.487Z,32
2017-05-15T14:09:16.572Z,32
2017-05-15T14:10:24.659Z,32
2017-05-15T14:11:32.748Z,28
2017-05-15T14:12:40.835Z,28
2017-05-15T14:13:48.930Z,28
2017-05-15T14:14:57.014Z,28
2017-05-15T14:16:05.092Z,28
2017-05-15T14:17:13.180Z,32
2017-05-15T14:18:21.268Z,28
2017-05-15T14:19:29.354Z,32
2017-05-15T14:20:37.442Z,32
2017-05-15T14:21:45.530Z,32
2017-05-15T14:22:53.646Z,28
2017-05-15T14:24:01.700Z,32
2017-05-15T14:25:09.787Z,32
2017-05-15T14:26:17.875Z,28
2017-05-15T14:27:25.962Z,32
2017-05-15T14:28:34.049Z,28
2017-05-15T14:29:42.136Z,28
2017-05-15T14:30:50.223Z,28
2017-05-15T14:31:58.307Z,28
2017-05-15T14:33:06.396Z,28
2017-05-15T14:34:14.486Z,16
2017-05-15T14:35:22.566Z,12
2017-05-15T14:36:30.657Z,12
2017-05-15T14:37:38.750Z,16
2017-05-15T14:38:47.157Z,16
2017-05-15T14:39:54.917Z,28
2017-05-15T14:41:03.002Z,28
2017-05-15T14:42:11.087Z,20
2017-05-15T14:43:19.173Z,28
2017-05-15T14:44:27.286Z,28
2017-05-15T14:45:35.348Z,24
2017-05-15T14:46:43.433Z,16
2017-05-15T14:47:51.520Z,12
2017-05-15T14:48:59.610Z,16
2017-05-15T14:50:07.696Z,16
2017-05-15T14:51:15.784Z,16
2017-05-15T14:52:23.925Z,16
2017-05-15T14:53:31.953Z,16
2017-05-15T14:54:40.039Z,16
2017-05-15T14:55:48.135Z,16
2017-05-15T14:56:56.216Z,8
2017-05-15T14:58:04.303Z,12
2017-05-15T14:59:12.385Z,12
2017-05-15T15:00:20.474Z,12
2017-05-15T15:01:28.565Z,12
2017-05-15T15:02:36.649Z,12
2017-05-15T15:03:44.731Z,16
2017-05-15T15:04:52.818Z,16
2017-05-15T15:06:00.931Z,16
2017-05-15T15:07:08.992Z,16
2017-05-15T15:08:17.080Z,16
2017-05-15T15:09:25.167Z,16
2017-05-15T15:10:33.261Z,16
2017-05-15T15:11:41.342Z,16
2017-05-15T15:12:49.426Z,12
2017-05-15T15:13:57.512Z,12
2017-05-15T15:15:05.599Z,12
2017-05-15T15:16:13.687Z,12
2017-05-15T15:17:21.774Z,24
2017-05-15T15:18:29.861Z,24
2017-05-15T15:19:38.005Z,24
2017-05-15T15:20:46.035Z,24
2017-05-15T15:21:54.120Z,24
2017-05-15T15:23:02.237Z,24
2017-05-15T15:24:10.295Z,24
2017-05-15T15:25:18.379Z,24
2017-05-15T15:26:26.465Z,24
2017-05-15T15:27:34.555Z,24
2017-05-15T15:28:42.641Z,28
2017-05-15T15:29:50.728Z,28
2017-05-15T15:30:58.817Z,24
2017-05-15T15:32:06.901Z,24
2017-05-15T15:33:15.042Z,28
2017-05-15T15:34:23.087Z,28
2017-05-15T15:35:31.158Z,28
2017-05-15T15:36:39.255Z,28
2017-05-15T15:37:47.333Z,24
2017-05-15T15:38:55.418Z,24
2017-05-15T15:40:03.506Z,28
2017-05-15T15:41:11.595Z,28
2017-05-15T15:42:19.681Z,24
2017-05-15T15:43:27.767Z,24
2017-05-15T15:44:35.866Z,24
2017-05-15T15:45:43.974Z,24
2017-05-15T15:46:52.033Z,20
2017-05-15T15:48:00.118Z,20
2017-05-15T15:49:08.207Z,20
2017-05-15T15:50:16.295Z,24
2017-05-15T15:51:24.378Z,24
2017-05-15T15:52:32.467Z,24
2017-05-15T15:53:40.646Z,24
2017-05-15T15:54:48.645Z,24
2017-05-15T15:55:56.733Z,20
2017-05-15T15:57:04.825Z,24
2017-05-15T15:58:12.933Z,20
2017-05-15T15:59:20.994Z,20
2017-05-15T16:00:29.087Z,20
2017-05-15T16:01:37.167Z,12
2017-05-15T16:02:45.254Z,12
2017-05-15T16:03:53.342Z,8
2017-05-15T16:05:01.428Z,8
2017-05-15T16:06:09.515Z,20
2017-05-15T16:07:17.605Z,20
2017-05-15T16:08:25.691Z,20
2017-05-15T16:09:33.775Z,20
2017-05-15T16:10:41.958Z,20
2017-05-15T16:11:49.956Z,20
2017-05-15T16:12:58.042Z,20
2017-05-15T16:14:06.129Z,20
2017-05-15T16:15:14.223Z,20
2017-05-15T16:16:22.310Z,20
2017-05-15T16:17:30.393Z,24
2017-05-15T16:18:38.483Z,20
2017-05-15T16:19:46.573Z,20
2017-05-15T16:20:54.656Z,20
2017-05-15T16:22:02.744Z,24
2017-05-15T16:23:10.830Z,20
2017-05-15T16:24:18.920Z,20
2017-05-15T16:25:27.006Z,24
2017-05-15T16:26:35.096Z,24